Time;durP1;ratioP1;P1;durP2;ratioP2;P2;SDS_P1;SDS_P2;PMS_P1;PMS_P2;Temp;Humidity;BMP_temperature;BMP_pressure;BME280_temperature;BME280_humidity;BME280_pressure;Samples;Min_cycle;Max_cycle;Signal;HPM_P1;HPM_P2
2021/08/02 00:03:19;;;;;;;7.20;2.85;;;;;;;16.08;80.72;100180.88;20937098;28;20522;-79
2021/08/02 00:13:28;;;;;;;4.85;2.80;;;;;;;16.16;81.35;100170.88;20918440;28;20135;-81
2021/08/02 00:23:30;;;;;;;6.82;2.90;;;;;;;16.11;82.08;100182.56;20912447;28;20041;-81
2021/08/02 00:33:32;;;;;;;4.97;2.83;;;;;;;16.06;83.38;100190.66;20895067;28;20269;-81
2021/08/02 00:44:00;;;;;;;7.07;2.88;;;;;;;15.92;84.10;100189.53;20908276;28;20045;-81
2021/08/02 00:54:02;;;;;;;5.57;3.17;;;;;;;15.79;84.41;100181.25;20920144;28;20553;-81
2021/08/02 01:04:04;;;;;;;6.18;2.97;;;;;;;15.67;83.80;100171.19;20924338;28;20486;-80
2021/08/02 01:14:06;;;;;;;5.93;3.20;;;;;;;15.69;83.39;100185.16;20921472;28;20045;-80
2021/08/02 01:24:12;;;;;;;7.25;3.47;;;;;;;15.54;82.71;100183.97;20918884;28;20037;-80
2021/08/02 01:34:16;;;;;;;6.75;2.90;;;;;;;15.34;83.47;100176.84;20914882;28;20075;-79
2021/08/02 01:44:18;;;;;;;6.63;2.83;;;;;;;15.21;82.39;100178.22;20907589;28;20045;-79
2021/08/02 01:54:40;;;;;;;4.72;2.58;;;;;;;15.21;81.90;100188.78;20914302;28;20049;-79
2021/08/02 02:05:03;;;;;;;5.55;2.40;;;;;;;15.08;81.62;100194.50;20967022;28;20078;-79
2021/08/02 02:15:06;;;;;;;4.60;2.60;;;;;;;14.91;83.07;100203.97;20954130;28;20053;-79
2021/08/02 02:25:09;;;;;;;5.38;2.45;;;;;;;14.86;82.89;100198.88;20947610;28;20628;-79
2021/08/02 02:35:12;;;;;;;5.00;2.45;;;;;;;14.86;82.87;100204.16;20962603;28;20049;-79
2021/08/02 02:45:14;;;;;;;5.20;2.60;;;;;;;14.89;83.61;100204.00;20943187;28;20168;-79
2021/08/02 02:55:16;;;;;;;5.60;2.42;;;;;;;14.94;82.83;100207.34;20959656;28;20457;-79
2021/08/02 03:05:23;;;;;;;5.85;2.67;;;;;;;15.05;83.02;100226.28;20943611;28;20049;-79
2021/08/02 03:15:25;;;;;;;4.80;2.20;;;;;;;15.08;82.38;100220.88;20966869;28;20065;-79
2021/08/02 03:25:36;;;;;;;7.43;2.67;;;;;;;15.08;82.60;100231.41;20967740;28;20037;-79
2021/08/02 03:35:42;;;;;;;4.82;2.38;;;;;;;15.03;82.83;100232.50;20967706;28;20045;-79
2021/08/02 03:45:44;;;;;;;6.20;2.33;;;;;;;15.11;82.18;100247.13;20968463;28;20045;-79
2021/08/02 03:55:46;;;;;;;7.47;2.83;;;;;;;15.12;82.90;100248.84;20965693;28;20041;-79
2021/08/02 04:05:48;;;;;;;5.47;2.90;;;;;;;15.02;83.03;100246.63;20984086;22;20552;-70
2021/08/02 04:15:50;;;;;;;5.13;2.60;;;;;;;15.04;82.33;100261.47;21062500;28;20040;-70
2021/08/02 04:25:52;;;;;;;5.72;2.50;;;;;;;14.96;84.96;100270.56;21064003;28;20101;-71
2021/08/02 04:35:54;;;;;;;7.80;3.03;;;;;;;14.98;84.21;100263.47;21063206;28;20044;-70
2021/08/02 04:45:56;;;;;;;8.85;3.35;;;;;;;15.00;83.71;100265.13;21061521;28;20105;-70
2021/08/02 04:55:58;;;;;;;6.00;3.25;;;;;;;15.06;84.31;100259.63;21061568;28;20566;-70
2021/08/02 05:06:00;;;;;;;5.75;3.40;;;;;;;15.19;83.65;100269.72;21060383;28;20097;-70
2021/08/02 05:16:05;;;;;;;8.45;4.18;;;;;;;15.22;83.00;100277.53;21059190;28;20048;-69
2021/08/02 05:26:06;;;;;;;6.53;3.53;;;;;;;15.29;84.15;100294.88;21059768;28;20075;-70
2021/08/02 05:36:08;;;;;;;5.45;3.50;;;;;;;15.45;83.73;100288.09;21058880;28;20047;-70
2021/08/02 05:46:12;;;;;;;6.30;3.45;;;;;;;15.72;82.95;100290.66;21001278;28;20131;-70
2021/08/02 05:56:14;;;;;;;9.25;3.67;;;;;;;15.95;82.62;100300.28;20975733;28;20071;-71
2021/08/02 06:06:17;;;;;;;9.35;4.03;;;;;;;16.42;80.42;100301.00;21048600;28;20051;-71
2021/08/02 06:16:21;;;;;;;8.85;3.70;;;;;;;16.62;80.00;100309.00;21074248;28;20056;-71
2021/08/02 06:26:37;;;;;;;7.03;3.90;;;;;;;16.98;78.44;100312.78;21074457;28;20405;-70
2021/08/02 06:36:39;;;;;;;6.47;3.33;;;;;;;17.28;76.53;100315.88;21072301;28;20097;-70
2021/08/02 06:46:41;;;;;;;5.95;3.03;;;;;;;17.31;77.13;100313.09;21070527;28;20483;-70
2021/08/02 06:56:43;;;;;;;7.90;3.90;;;;;;;17.28;76.82;100321.16;21071107;28;20429;-70
2021/08/02 07:06:45;;;;;;;5.80;2.97;;;;;;;17.43;75.53;100321.31;21039836;28;20482;-70
2021/08/02 07:16:47;;;;;;;5.55;2.90;;;;;;;17.81;74.18;100321.38;21017868;28;20045;-70
2021/08/02 07:26:48;;;;;;;6.35;3.10;;;;;;;17.68;73.90;100314.94;20991109;28;20047;-68
2021/08/02 07:36:50;;;;;;;9.55;3.38;;;;;;;17.70;73.56;100318.34;20996838;28;20436;-71
2021/08/02 07:46:52;;;;;;;7.05;3.30;;;;;;;18.09;72.57;100310.34;21048162;28;20041;-68
2021/08/02 07:56:54;;;;;;;5.65;2.92;;;;;;;18.24;71.39;100324.63;20987396;28;20036;-70
2021/08/02 08:06:56;;;;;;;7.40;2.90;;;;;;;19.25;67.71;100316.03;21013608;28;20040;-71
2021/08/02 08:16:58;;;;;;;5.10;2.58;;;;;;;19.61;67.28;100311.44;21022710;28;20044;-71
2021/08/02 08:27:00;;;;;;;5.50;1.90;;;;;;;19.79;63.60;100308.72;20982957;28;20046;-70
2021/08/02 08:37:02;;;;;;;6.15;2.20;;;;;;;19.81;64.71;100318.31;20984349;28;20036;-67
2021/08/02 08:47:05;;;;;;;4.60;2.20;;;;;;;20.19;64.41;100313.50;21018474;28;21202;-67
2021/08/02 08:57:13;;;;;;;4.60;2.22;;;;;;;19.97;63.88;100312.97;20991092;28;20041;-67
2021/08/02 09:07:14;;;;;;;6.43;2.17;;;;;;;20.07;64.30;100318.63;21002865;28;20518;-67
2021/08/02 09:17:50;;;;;;;5.93;2.30;;;;;;;20.34;62.71;100310.91;21014846;28;20106;-67
2021/08/02 09:27:52;;;;;;;4.78;1.80;;;;;;;20.57;60.67;100314.94;20984446;28;20041;-67
2021/08/02 09:38:00;;;;;;;6.38;2.60;;;;;;;20.85;60.13;100317.69;21001217;28;20094;-67
2021/08/02 09:48:02;;;;;;;4.28;2.00;;;;;;;21.15;59.18;100309.63;21032726;28;20124;-69
2021/08/02 09:58:04;;;;;;;5.22;2.08;;;;;;;21.43;58.31;100307.97;21017661;28;20098;-69
2021/08/02 10:08:13;;;;;;;4.65;1.98;;;;;;;21.82;57.17;100303.75;21070763;28;20060;-68
2021/08/02 10:18:18;;;;;;;6.63;2.85;;;;;;;22.59;55.91;100292.44;21066315;28;20047;-68
2021/08/02 10:28:24;;;;;;;4.25;2.10;;;;;;;22.77;53.22;100282.34;21049384;28;20344;-68
2021/08/02 10:38:26;;;;;;;6.18;2.10;;;;;;;22.63;54.23;100259.25;20993684;28;20067;-68
2021/08/02 10:48:29;;;;;;;4.85;2.15;;;;;;;22.36;54.53;100264.63;20993720;28;20067;-68
2021/08/02 10:58:40;;;;;;;5.90;2.40;;;;;;;22.61;53.19;100261.16;20991429;28;20452;-68
2021/08/02 11:08:49;;;;;;;5.75;2.45;;;;;;;22.31;54.43;100261.44;20991347;28;20645;-68
2021/08/02 11:18:58;;;;;;;5.55;2.58;;;;;;;21.33;57.95;100274.88;21067852;28;20070;-68
2021/08/02 11:29:00;;;;;;;4.35;2.13;;;;;;;20.88;63.61;100260.72;21050982;28;20053;-69
2021/08/02 11:39:15;;;;;;;3.85;1.73;;;;;;;22.70;54.52;100254.34;20987225;28;20036;-69
2021/08/02 11:49:16;;;;;;;4.17;1.50;;;;;;;22.79;52.09;100259.06;20985088;28;20086;-69
2021/08/02 11:59:29;;;;;;;1.48;0.90;;;;;;;22.02;45.74;100252.66;20988735;28;20052;-69
2021/08/02 12:09:37;;;;;;;0.98;0.57;;;;;;;22.73;46.50;100249.66;20987840;28;20044;-70
2021/08/02 12:19:44;;;;;;;1.77;0.88;;;;;;;23.34;45.88;100243.72;21070307;28;20073;-69
2021/08/02 12:29:57;;;;;;;4.05;1.30;;;;;;;22.61;51.52;100239.81;21067989;28;20044;-68
2021/08/02 12:39:59;;;;;;;3.70;1.10;;;;;;;22.98;51.66;100239.97;21066261;28;20082;-68
2021/08/02 12:50:02;;;;;;;3.30;1.20;;;;;;;22.98;49.67;100229.31;21066754;28;20481;-68
2021/08/02 13:00:05;;;;;;;2.40;1.40;;;;;;;22.56;51.96;100225.94;21064895;28;20512;-69
2021/08/02 13:10:07;;;;;;;3.30;1.40;;;;;;;22.77;52.61;100213.78;21063070;28;20044;-69
2021/08/02 13:20:10;;;;;;;4.80;1.83;;;;;;;23.06;52.71;100208.25;20980839;28;20180;-69
2021/08/02 13:30:11;;;;;;;3.55;1.40;;;;;;;23.30;50.45;100190.47;20979994;28;20105;-68
2021/08/02 13:40:13;;;;;;;3.00;1.38;;;;;;;23.40;47.84;100189.81;20981672;28;20056;-69
2021/08/02 13:50:35;;;;;;;6.38;1.60;;;;;;;24.26;47.37;100179.81;20980069;28;20139;-68
2021/08/02 14:00:37;;;;;;;4.07;1.52;;;;;;;24.44;47.20;100169.56;20980113;28;20472;-69
2021/08/02 14:10:39;;;;;;;2.28;1.20;;;;;;;24.92;47.02;100184.63;20986300;28;20469;-69
2021/08/02 14:20:41;;;;;;;2.83;1.20;;;;;;;24.01;46.99;100193.38;21062883;28;20082;-68
2021/08/02 14:30:44;;;;;;;3.13;0.90;;;;;;;19.96;56.16;100295.34;21069734;28;20066;-68
2021/08/02 14:41:03;;;;;;;4.40;1.23;;;;;;;17.93;74.30;100318.16;21077384;28;20040;-67
2021/08/02 14:51:08;;;;;;;5.20;2.00;;;;;;;16.24;82.62;100299.13;21064983;28;20097;-67
2021/08/02 15:01:10;;;;;;;4.82;1.67;;;;;;;16.01;84.09;100287.72;20992605;28;20048;-67
2021/08/02 15:11:12;;;;;;;3.40;1.80;;;;;;;16.20;82.94;100268.50;21002955;28;20048;-68
2021/08/02 15:21:23;;;;;;;5.88;1.40;;;;;;;17.52;82.07;100282.13;21075657;28;20482;-67
2021/08/02 15:31:26;;;;;;;3.03;1.20;;;;;;;19.09;71.00;100260.25;21074122;28;20052;-68
2021/08/02 15:41:28;;;;;;;2.47;1.10;;;;;;;18.50;76.61;100278.28;21071842;28;20047;-68
2021/08/02 15:51:30;;;;;;;3.00;1.27;;;;;;;18.79;74.55;100284.81;21072075;28;20409;-68
2021/08/02 16:01:35;;;;;;;3.95;1.33;;;;;;;19.33;73.49;100285.47;20996557;28;20044;-68
2021/08/02 16:11:57;;;;;;;4.68;1.35;;;;;;;20.62;69.37;100279.13;21000008;28;20075;-68
2021/08/02 16:22:00;;;;;;;2.65;1.20;;;;;;;20.00;70.27;100283.59;20986710;28;20383;-69
2021/08/02 16:32:04;;;;;;;4.13;2.60;;;;;;;19.67;69.49;100281.00;20986334;28;20086;-70
2021/08/02 16:42:06;;;;;;;3.80;1.60;;;;;;;19.21;78.69;100281.69;20984886;28;20072;-69
2021/08/02 16:52:08;;;;;;;3.97;1.60;;;;;;;19.39;77.12;100281.63;20995758;28;20036;-68
2021/08/02 17:02:10;;;;;;;3.20;1.60;;;;;;;19.51;76.50;100291.59;21067051;28;20459;-68
2021/08/02 17:12:12;;;;;;;3.38;1.45;;;;;;;19.43;77.95;100286.69;21046440;28;20478;-68
2021/08/02 17:22:14;;;;;;;3.35;1.63;;;;;;;19.36;77.02;100292.44;20994243;28;20456;-68
2021/08/02 17:32:16;;;;;;;4.80;1.90;;;;;;;19.43;74.93;100275.22;21006008;28;20102;-69
2021/08/02 17:42:18;;;;;;;3.90;1.30;;;;;;;19.51;75.61;100267.69;20988889;28;20045;-69
2021/08/02 17:52:20;;;;;;;3.95;1.60;;;;;;;19.42;75.58;100274.38;20987854;28;20109;-69
2021/08/02 18:02:23;;;;;;;5.68;1.25;;;;;;;19.28;76.54;100289.31;21000752;28;20063;-69
2021/08/02 18:12:26;;;;;;;4.07;1.27;;;;;;;18.94;76.44;100301.72;21053157;28;20135;-69
2021/08/02 18:22:29;;;;;;;6.28;1.33;;;;;;;18.34;79.36;100304.69;21056647;28;20052;-69
2021/08/02 18:32:32;;;;;;;2.80;1.67;;;;;;;18.04;76.37;100301.75;21078231;28;20070;-69
2021/08/02 18:42:34;;;;;;;4.60;1.58;;;;;;;17.98;74.28;100312.66;21028312;28;20428;-69
2021/08/02 18:52:38;;;;;;;2.90;1.30;;;;;;;17.76;74.71;100322.53;21076846;28;20080;-69
2021/08/02 19:02:40;;;;;;;3.22;1.40;;;;;;;17.44;76.02;100327.50;21021063;28;20047;-69
2021/08/02 19:13:01;;;;;;;2.10;1.25;;;;;;;17.16;76.02;100339.31;21015577;28;20036;-69
2021/08/02 19:23:11;;;;;;;3.80;1.30;;;;;;;16.95;75.07;100349.94;21066314;28;20060;-69
2021/08/02 19:33:18;;;;;;;2.60;1.33;;;;;;;17.09;74.76;100369.59;20997800;28;20048;-69
2021/08/02 19:43:27;;;;;;;2.65;1.30;;;;;;;17.06;75.27;100379.47;20988829;28;20483;-69
2021/08/02 19:53:30;;;;;;;5.50;2.20;;;;;;;17.03;76.83;100369.84;20986556;28;20044;-69
2021/08/02 20:03:34;;;;;;;4.63;1.58;;;;;;;17.00;76.38;100383.19;20986523;28;20049;-69
2021/08/02 20:13:43;;;;;;;7.80;2.00;;;;;;;16.61;77.32;100389.19;21037258;28;20119;-69
2021/08/02 20:23:53;;;;;;;3.45;1.60;;;;;;;16.29;80.43;100402.81;21050630;28;20066;-69
2021/08/02 20:33:59;;;;;;;2.95;1.50;;;;;;;16.26;81.67;100398.53;20983525;28;20041;-69
2021/08/02 20:44:04;;;;;;;3.42;1.80;;;;;;;16.33;80.83;100388.59;20983487;28;20110;-69
2021/08/02 20:54:08;;;;;;;3.53;1.85;;;;;;;16.32;81.68;100376.31;20987344;28;20055;-69
2021/08/02 21:04:40;;;;;;;4.25;1.88;;;;;;;16.48;81.67;100381.81;20986220;28;20555;-69
2021/08/02 21:14:43;;;;;;;3.47;1.60;;;;;;;16.41;81.79;100382.06;20945360;28;20107;-70
2021/08/02 21:24:47;;;;;;;5.68;2.30;;;;;;;16.19;82.88;100381.19;20903732;28;20383;-70
2021/08/02 21:34:48;;;;;;;3.65;1.75;;;;;;;15.80;84.04;100383.59;20902603;28;20041;-70
2021/08/02 21:44:50;;;;;;;3.67;1.83;;;;;;;15.86;85.15;100378.09;20901839;28;20111;-70
2021/08/02 21:54:56;;;;;;;5.90;1.95;;;;;;;16.08;84.08;100373.69;20902395;28;20548;-70
2021/08/02 22:04:58;;;;;;;4.25;2.15;;;;;;;15.85;84.65;100386.91;20930350;28;20040;-70
2021/08/02 22:15:00;;;;;;;4.45;1.95;;;;;;;15.63;84.65;100382.44;20983752;28;20037;-69
2021/08/02 22:25:02;;;;;;;3.78;2.00;;;;;;;15.60;85.24;100385.16;20983066;28;20045;-70
2021/08/02 22:35:06;;;;;;;5.53;2.30;;;;;;;15.54;84.85;100372.19;20983121;28;20516;-69
2021/08/02 22:45:10;;;;;;;6.55;2.10;;;;;;;15.65;84.11;100369.19;20982210;28;20044;-69
2021/08/02 22:55:14;;;;;;;4.40;2.17;;;;;;;15.75;83.36;100369.69;20993987;28;20429;-69
2021/08/02 23:05:25;;;;;;;3.77;1.90;;;;;;;15.72;83.22;100369.84;20995069;28;20048;-69
2021/08/02 23:15:29;;;;;;;4.80;1.83;;;;;;;15.83;83.05;100362.38;20995365;28;20053;-70
2021/08/02 23:25:31;;;;;;;4.47;2.08;;;;;;;15.83;83.17;100362.38;20994100;28;20094;-70
2021/08/02 23:35:33;;;;;;;3.95;2.00;;;;;;;15.93;83.12;100345.25;20993373;28;20117;-69
2021/08/02 23:45:36;;;;;;;4.80;2.20;;;;;;;15.97;83.25;100338.94;20992034;28;20041;-69
2021/08/02 23:55:40;;;;;;;4.00;2.17;;;;;;;16.03;83.66;100343.97;20991499;28;20422;-70
